createdAt,value
2022-08-16T00:02:24.632Z,18.30
2022-08-16T00:04:53.108Z,18.30
2022-08-16T00:07:21.000Z,18.20
2022-08-16T00:09:48.945Z,18.10
2022-08-16T00:12:19.937Z,18.00
2022-08-16T00:14:49.853Z,17.90
2022-08-16T00:17:18.975Z,17.80
2022-08-16T00:23:53.789Z,17.70
2022-08-16T00:34:53.090Z,17.70
2022-08-16T00:37:24.377Z,17.80
2022-08-16T00:39:57.208Z,17.70
2022-08-16T00:42:30.495Z,17.70
2022-08-16T00:45:08.475Z,17.70
2022-08-16T00:47:40.038Z,17.70
2022-08-16T00:54:21.687Z,17.70
2022-08-16T00:56:57.657Z,17.60
2022-08-16T01:07:54.693Z,17.60
2022-08-16T01:19:29.229Z,17.30
2022-08-16T01:22:48.255Z,17.40
2022-08-16T01:28:58.829Z,17.40
2022-08-16T01:31:31.076Z,17.30
2022-08-16T01:33:59.237Z,17.40
2022-08-16T01:36:27.193Z,17.30
2022-08-16T01:43:01.728Z,17.10
2022-08-16T01:57:53.879Z,17.20
2022-08-16T02:04:49.190Z,16.90
2022-08-16T02:15:43.786Z,16.80
2022-08-16T02:22:33.841Z,16.70
2022-08-16T02:25:09.751Z,16.60
2022-08-16T02:27:38.253Z,16.60
2022-08-16T02:30:12.176Z,16.60
2022-08-16T02:33:03.213Z,16.60
2022-08-16T02:35:31.877Z,16.60
2022-08-16T02:38:01.757Z,16.60
2022-08-16T02:40:37.682Z,16.60
2022-08-16T02:43:06.994Z,16.60
2022-08-16T02:45:36.122Z,16.60
2022-08-16T02:48:28.334Z,16.60
2022-08-16T02:51:06.267Z,16.60
2022-08-16T02:53:37.489Z,16.60
2022-08-16T02:56:06.405Z,16.60
2022-08-16T02:58:38.477Z,16.50
2022-08-16T03:01:12.664Z,16.60
2022-08-16T03:04:39.425Z,16.60
2022-08-16T03:06:41.623Z,16.50
2022-08-16T03:09:13.800Z,16.50
2022-08-16T03:11:43.446Z,16.50
2022-08-16T03:14:12.442Z,16.50
2022-08-16T03:16:58.897Z,16.50
2022-08-16T03:19:48.628Z,16.50
2022-08-16T03:22:28.151Z,16.40
2022-08-16T03:24:58.755Z,16.40
2022-08-16T03:27:31.331Z,16.40
2022-08-16T03:30:02.414Z,16.30
2022-08-16T03:32:45.318Z,16.30
2022-08-16T03:35:17.954Z,16.30
2022-08-16T03:38:01.721Z,16.20
2022-08-16T03:40:33.480Z,16.10
2022-08-16T03:43:20.259Z,16.10
2022-08-16T03:45:52.971Z,16.10
2022-08-16T03:48:39.696Z,16.10
2022-08-16T03:51:12.319Z,16.00
2022-08-16T03:53:40.984Z,16.00
2022-08-16T03:56:19.821Z,16.00
2022-08-16T03:58:50.612Z,16.00
2022-08-16T04:01:19.204Z,16.00
2022-08-16T04:03:47.453Z,16.00
2022-08-16T04:06:19.201Z,15.90
2022-08-16T04:08:47.963Z,15.90
2022-08-16T04:11:16.457Z,15.90
2022-08-16T04:13:59.234Z,15.80
2022-08-16T04:16:32.202Z,15.80
2022-08-16T04:19:04.442Z,15.80
2022-08-16T04:21:35.373Z,15.80
2022-08-16T04:24:08.096Z,15.80
2022-08-16T04:26:36.512Z,15.80
2022-08-16T04:29:16.811Z,15.90
2022-08-16T04:31:56.518Z,15.90
2022-08-16T04:38:34.265Z,15.90
2022-08-16T04:41:02.135Z,16.00
2022-08-16T04:43:30.762Z,16.00
2022-08-16T04:46:00.154Z,16.10
2022-08-16T04:48:32.747Z,16.10
2022-08-16T04:51:11.806Z,16.10
2022-08-16T04:57:55.035Z,16.10
2022-08-16T05:00:32.201Z,16.20
2022-08-16T05:03:07.768Z,16.20
2022-08-16T05:05:45.382Z,16.20
2022-08-16T05:08:29.368Z,16.30
2022-08-16T05:11:00.557Z,16.40
2022-08-16T05:13:40.753Z,16.50
2022-08-16T05:16:11.935Z,16.60
2022-08-16T05:18:44.602Z,16.70
2022-08-16T05:21:12.781Z,16.80
2022-08-16T05:23:40.789Z,16.80
2022-08-16T05:26:19.534Z,16.90
2022-08-16T05:28:55.469Z,17.00
2022-08-16T05:35:29.857Z,17.10
2022-08-16T05:47:02.260Z,17.50
2022-08-16T05:53:52.209Z,17.70
2022-08-16T05:56:20.284Z,17.80
2022-08-16T06:06:56.865Z,18.00
2022-08-16T06:09:37.170Z,18.10
2022-08-16T06:12:11.983Z,18.20
2022-08-16T06:14:40.043Z,18.30
2022-08-16T06:17:08.220Z,18.40
2022-08-16T06:19:36.212Z,18.50
2022-08-16T06:43:21.264Z,19.00
2022-08-16T06:45:55.490Z,19.10
2022-08-16T06:48:33.160Z,19.30
2022-08-16T06:55:01.632Z,19.40
2022-08-16T06:57:29.440Z,19.50
2022-08-16T06:59:58.748Z,19.60
2022-08-16T07:02:32.864Z,19.70
2022-08-16T07:05:01.762Z,19.70
2022-08-16T07:07:33.847Z,19.90
2022-08-16T07:10:08.747Z,20.10
2022-08-16T07:12:47.304Z,20.10
2022-08-16T07:15:18.793Z,20.20
2022-08-16T07:17:49.586Z,20.30
2022-08-16T07:20:35.130Z,20.40
2022-08-16T07:23:13.412Z,20.40
2022-08-16T07:25:42.046Z,20.60
2022-08-16T07:28:12.278Z,20.60
2022-08-16T07:30:50.505Z,20.70
2022-08-16T07:33:52.683Z,20.70
2022-08-16T07:36:07.830Z,20.80
2022-08-16T07:38:39.779Z,20.80
2022-08-16T07:41:09.715Z,20.90
2022-08-16T07:43:40.480Z,21.00
2022-08-16T07:46:39.013Z,21.10
2022-08-16T07:49:02.084Z,21.30
2022-08-16T07:51:33.017Z,21.40
2022-08-16T07:54:09.944Z,21.60
2022-08-16T07:56:38.821Z,21.60
2022-08-16T07:59:06.960Z,21.70
2022-08-16T08:01:38.178Z,21.90
2022-08-16T08:04:12.927Z,22.10
2022-08-16T08:06:41.769Z,22.20
2022-08-16T08:09:10.263Z,22.30
2022-08-16T08:11:38.430Z,22.40
2022-08-16T08:14:07.004Z,22.50
2022-08-16T08:16:37.026Z,22.70
2022-08-16T08:19:05.365Z,22.90
2022-08-16T08:22:00.049Z,23.00
2022-08-16T08:24:32.141Z,23.10
2022-08-16T08:27:02.408Z,23.30
2022-08-16T08:29:37.725Z,23.30
2022-08-16T08:33:01.987Z,23.50
2022-08-16T08:35:00.301Z,23.60
2022-08-16T08:37:54.482Z,23.70
2022-08-16T08:40:19.799Z,23.80
2022-08-16T08:42:57.834Z,24.00
2022-08-16T08:45:47.926Z,24.10
2022-08-16T08:48:33.726Z,24.40
2022-08-16T08:51:02.890Z,24.40
2022-08-16T08:53:30.939Z,24.70
2022-08-16T08:55:59.489Z,24.70
2022-08-16T08:58:34.392Z,24.90
2022-08-16T09:01:03.906Z,25.00
2022-08-16T09:03:34.270Z,25.00
2022-08-16T09:06:02.717Z,25.00
2022-08-16T09:08:32.128Z,24.80
2022-08-16T09:11:03.393Z,24.70
2022-08-16T09:13:35.734Z,24.80
2022-08-16T09:16:04.173Z,25.00
2022-08-16T09:18:35.651Z,25.20
2022-08-16T09:21:07.033Z,25.30
2022-08-16T09:23:37.412Z,25.30
2022-08-16T09:26:43.977Z,25.30
2022-08-16T09:29:14.721Z,25.40
2022-08-16T09:31:42.756Z,25.50
2022-08-16T09:34:17.231Z,25.70
2022-08-16T09:36:47.093Z,25.60
2022-08-16T09:39:15.821Z,25.50
2022-08-16T09:41:53.606Z,25.40
2022-08-16T09:45:09.390Z,25.40
2022-08-16T09:47:11.985Z,25.40
2022-08-16T09:49:41.760Z,25.40
2022-08-16T09:52:10.547Z,25.60
2022-08-16T09:54:44.592Z,25.80
2022-08-16T09:57:13.670Z,25.90
2022-08-16T09:59:42.742Z,26.00
2022-08-16T10:02:26.276Z,26.00
2022-08-16T10:04:58.541Z,25.90
2022-08-16T10:07:44.399Z,25.90
2022-08-16T10:10:13.407Z,26.10
2022-08-16T10:13:05.381Z,26.30
2022-08-16T10:15:34.245Z,26.40
2022-08-16T10:18:56.522Z,26.20
2022-08-16T10:20:59.298Z,26.10
2022-08-16T10:23:28.651Z,25.90
2022-08-16T10:27:16.311Z,26.00
2022-08-16T10:28:44.786Z,26.10
2022-08-16T10:31:14.716Z,26.10
2022-08-16T10:34:01.865Z,26.00
2022-08-16T10:36:39.294Z,25.90
2022-08-16T10:39:08.773Z,25.80
2022-08-16T10:41:36.740Z,25.70
2022-08-16T10:44:09.489Z,25.60
2022-08-16T10:46:41.465Z,25.40
2022-08-16T10:49:10.730Z,25.50
2022-08-16T10:52:01.387Z,25.50
2022-08-16T10:54:30.221Z,25.60
2022-08-16T10:56:59.461Z,25.50
2022-08-16T10:59:38.516Z,25.40
2022-08-16T11:02:57.740Z,25.40
2022-08-16T11:05:08.693Z,25.50
2022-08-16T11:07:45.474Z,25.60
2022-08-16T11:13:57.304Z,25.60
2022-08-16T11:16:26.361Z,25.60
2022-08-16T11:19:06.087Z,25.60
2022-08-16T11:24:39.912Z,25.50
2022-08-16T11:27:35.340Z,25.50
2022-08-16T11:30:01.289Z,25.60
2022-08-16T11:32:32.419Z,25.60
2022-08-16T11:35:13.915Z,25.80
2022-08-16T11:40:40.742Z,26.30
2022-08-16T11:43:12.866Z,26.60
2022-08-16T11:45:53.943Z,26.80
2022-08-16T11:48:22.988Z,27.00
2022-08-16T11:50:50.839Z,27.10
2022-08-16T11:53:19.258Z,27.30
2022-08-16T11:55:50.647Z,27.50
2022-08-16T11:58:25.251Z,27.70
2022-08-16T12:00:54.834Z,28.00
2022-08-16T12:03:34.769Z,28.20
2022-08-16T12:06:08.012Z,28.40
2022-08-16T12:08:40.430Z,28.50
2022-08-16T12:11:13.742Z,28.70
2022-08-16T12:13:42.944Z,28.70
2022-08-16T12:16:11.536Z,28.80
2022-08-16T12:21:18.918Z,28.80
2022-08-16T12:27:55.940Z,28.40
2022-08-16T12:30:32.391Z,28.50
2022-08-16T12:33:05.205Z,28.50
2022-08-16T12:35:36.022Z,28.50
2022-08-16T12:38:35.777Z,28.50
2022-08-16T12:40:57.018Z,28.40
2022-08-16T12:43:26.573Z,28.30
2022-08-16T12:45:59.408Z,28.20
2022-08-16T12:48:50.277Z,27.90
2022-08-16T12:51:24.115Z,27.80
2022-08-16T12:53:54.252Z,27.50
2022-08-16T12:56:25.934Z,27.30
2022-08-16T12:58:56.282Z,27.30
2022-08-16T13:01:28.876Z,27.30
2022-08-16T13:04:21.049Z,27.20
2022-08-16T13:06:48.298Z,27.20
2022-08-16T13:09:21.777Z,27.10
2022-08-16T13:12:03.361Z,27.10
2022-08-16T13:14:37.957Z,27.10
2022-08-16T13:17:08.340Z,27.20
2022-08-16T13:20:06.745Z,27.30
2022-08-16T13:22:26.549Z,27.30
2022-08-16T13:24:55.066Z,27.30
2022-08-16T13:28:01.451Z,27.30
2022-08-16T13:30:36.344Z,27.20
2022-08-16T13:33:01.961Z,27.20
2022-08-16T13:35:43.161Z,27.10
2022-08-16T13:38:25.204Z,27.10
2022-08-16T13:40:55.929Z,27.10
2022-08-16T13:43:25.193Z,27.20
2022-08-16T13:45:56.837Z,27.30
2022-08-16T13:48:25.875Z,27.50
2022-08-16T13:50:56.346Z,27.70
2022-08-16T13:53:25.269Z,28.00
2022-08-16T13:55:58.873Z,28.10
2022-08-16T13:58:34.759Z,28.10
2022-08-16T14:01:09.920Z,27.90
2022-08-16T14:03:38.550Z,27.80
2022-08-16T14:06:07.899Z,27.80
2022-08-16T14:08:41.906Z,27.80
2022-08-16T14:11:11.849Z,27.90
2022-08-16T14:13:40.706Z,27.90
2022-08-16T14:16:23.601Z,27.70
2022-08-16T14:18:53.050Z,27.70
2022-08-16T14:21:22.083Z,27.70
2022-08-16T14:23:52.845Z,27.80
2022-08-16T14:26:21.196Z,27.90
2022-08-16T14:28:50.751Z,27.90
2022-08-16T14:31:21.361Z,27.90
2022-08-16T14:33:51.386Z,28.00
2022-08-16T14:36:29.504Z,28.00
2022-08-16T14:38:58.159Z,28.00
2022-08-16T14:41:26.151Z,28.00
2022-08-16T14:43:54.365Z,28.00
2022-08-16T14:46:23.542Z,28.00
2022-08-16T14:48:52.175Z,28.00
2022-08-16T14:51:21.390Z,28.10
2022-08-16T14:53:52.214Z,28.00
2022-08-16T14:56:42.559Z,27.90
2022-08-16T14:59:08.892Z,27.80
2022-08-16T15:01:57.477Z,27.80
2022-08-16T15:04:32.402Z,27.70
2022-08-16T15:07:11.244Z,27.70
2022-08-16T15:09:44.179Z,27.60
2022-08-16T15:12:30.888Z,27.60
2022-08-16T15:15:00.949Z,27.70
2022-08-16T15:17:34.057Z,27.70
2022-08-16T15:20:08.478Z,27.70
2022-08-16T15:22:39.400Z,27.70
2022-08-16T15:25:12.059Z,27.60
2022-08-16T15:27:42.097Z,27.50
2022-08-16T15:30:58.410Z,27.60
2022-08-16T15:33:04.862Z,27.60
2022-08-16T15:35:33.377Z,27.60
2022-08-16T15:38:08.870Z,27.60
2022-08-16T15:40:57.486Z,27.60
2022-08-16T15:43:27.187Z,27.70
2022-08-16T15:46:53.970Z,27.70
2022-08-16T15:49:15.338Z,27.70
2022-08-16T15:51:45.299Z,27.80
2022-08-16T15:54:21.150Z,27.80
2022-08-16T15:57:03.023Z,27.80
2022-08-16T15:59:48.137Z,27.80
2022-08-16T16:02:21.683Z,27.80
2022-08-16T16:04:57.274Z,27.80
2022-08-16T16:07:30.287Z,27.70
2022-08-16T16:09:59.199Z,27.60
2022-08-16T16:15:17.555Z,27.40
2022-08-16T16:17:50.886Z,27.40
2022-08-16T16:20:24.416Z,27.40
2022-08-16T16:22:56.957Z,27.40
2022-08-16T16:25:26.404Z,27.30
2022-08-16T16:27:55.978Z,27.30
2022-08-16T16:30:33.068Z,27.30
2022-08-16T16:33:06.506Z,27.20
2022-08-16T16:35:36.862Z,27.10
2022-08-16T16:38:08.232Z,27.00
2022-08-16T16:40:46.467Z,27.00
2022-08-16T16:43:25.763Z,26.90
2022-08-16T16:45:58.196Z,26.90
2022-08-16T16:48:29.510Z,26.80
2022-08-16T16:51:09.441Z,26.80
2022-08-16T16:53:40.835Z,26.80
2022-08-16T16:56:19.391Z,26.80
2022-08-16T16:58:56.587Z,26.80
2022-08-16T17:01:51.069Z,26.80
2022-08-16T17:04:19.607Z,26.70
2022-08-16T17:06:53.399Z,26.70
2022-08-16T17:09:25.212Z,26.70
2022-08-16T17:11:55.126Z,26.70
2022-08-16T17:14:32.738Z,26.60
2022-08-16T17:17:06.399Z,26.60
2022-08-16T17:19:41.302Z,26.50
2022-08-16T17:22:14.795Z,26.50
2022-08-16T17:24:45.098Z,26.40
2022-08-16T17:27:18.045Z,26.40
2022-08-16T17:29:47.416Z,26.30
2022-08-16T17:32:33.652Z,26.20
2022-08-16T17:35:18.179Z,26.20
2022-08-16T17:37:51.712Z,26.10
2022-08-16T17:40:25.545Z,26.10
2022-08-16T17:43:10.078Z,26.10
2022-08-16T17:45:39.193Z,26.00
2022-08-16T17:48:07.650Z,25.90
2022-08-16T17:50:36.288Z,25.80
2022-08-16T17:53:06.962Z,25.80
2022-08-16T17:55:38.133Z,25.70
2022-08-16T17:58:10.562Z,25.60
2022-08-16T18:00:52.499Z,25.50
2022-08-16T18:04:03.147Z,25.40
2022-08-16T18:06:15.463Z,25.40
2022-08-16T18:08:45.121Z,25.30
2022-08-16T18:11:18.828Z,25.20
2022-08-16T18:13:47.042Z,25.00
2022-08-16T18:16:16.620Z,24.90
2022-08-16T18:18:45.988Z,24.90
2022-08-16T18:21:33.117Z,24.80
2022-08-16T18:24:02.668Z,24.70
2022-08-16T18:26:30.513Z,24.60
2022-08-16T18:28:58.295Z,24.40
2022-08-16T18:31:26.629Z,24.40
2022-08-16T18:33:55.748Z,24.30
2022-08-16T18:36:23.876Z,24.20
2022-08-16T18:38:52.755Z,24.10
2022-08-16T18:41:24.628Z,24.00
2022-08-16T18:43:58.807Z,23.90
2022-08-16T18:46:42.296Z,23.80
2022-08-16T18:49:11.412Z,23.70
2022-08-16T18:51:42.614Z,23.70
2022-08-16T18:54:11.825Z,23.50
2022-08-16T18:56:56.930Z,23.50
2022-08-16T18:59:28.309Z,23.40
2022-08-16T19:02:00.344Z,23.30
2022-08-16T19:04:48.101Z,23.10
2022-08-16T19:07:22.147Z,23.00
2022-08-16T19:09:49.953Z,23.00
2022-08-16T19:12:38.477Z,22.90
2022-08-16T19:15:11.936Z,22.80
2022-08-16T19:17:41.178Z,22.80
2022-08-16T19:20:11.056Z,22.70
2022-08-16T19:23:02.067Z,22.60
2022-08-16T19:25:46.872Z,22.50
2022-08-16T19:28:33.327Z,22.40
2022-08-16T19:31:10.597Z,22.30
2022-08-16T19:33:38.760Z,22.10
2022-08-16T19:36:06.899Z,21.90
2022-08-16T19:38:39.880Z,21.80
2022-08-16T19:41:07.996Z,21.80
2022-08-16T19:43:37.248Z,21.70
2022-08-16T19:46:05.134Z,21.60
2022-08-16T19:48:32.974Z,21.60
2022-08-16T19:51:01.489Z,21.50
2022-08-16T19:53:29.306Z,21.50
2022-08-16T19:55:57.134Z,21.50
2022-08-16T19:58:24.962Z,21.30
2022-08-16T20:00:56.462Z,21.30
2022-08-16T20:03:25.077Z,21.20
2022-08-16T20:05:53.179Z,21.10
2022-08-16T20:08:22.137Z,21.00
2022-08-16T20:10:50.628Z,21.00
2022-08-16T20:13:21.720Z,21.00
2022-08-16T20:15:50.442Z,21.00
2022-08-16T20:18:24.519Z,21.00
2022-08-16T20:20:54.010Z,21.00
2022-08-16T20:23:24.826Z,20.90
2022-08-16T20:25:55.433Z,20.90
2022-08-16T20:28:40.656Z,20.90
2022-08-16T20:31:12.182Z,20.90
2022-08-16T20:33:41.384Z,20.80
2022-08-16T20:36:16.026Z,20.80
2022-08-16T20:38:46.886Z,20.80
2022-08-16T20:41:15.194Z,20.80
2022-08-16T20:43:43.512Z,20.80
2022-08-16T20:46:13.263Z,20.90
2022-08-16T20:48:42.595Z,20.80
2022-08-16T20:51:11.433Z,20.80
2022-08-16T20:53:39.765Z,20.70
2022-08-16T20:56:08.769Z,20.60
2022-08-16T20:58:37.360Z,20.60
2022-08-16T21:01:06.296Z,20.60
2022-08-16T21:03:34.546Z,20.50
2022-08-16T21:06:05.311Z,20.50
2022-08-16T21:08:53.288Z,20.40
2022-08-16T21:11:23.466Z,20.20
2022-08-16T21:13:52.309Z,20.20
2022-08-16T21:16:28.293Z,20.00
2022-08-16T21:18:56.084Z,20.10
2022-08-16T21:21:31.898Z,20.00
2022-08-16T21:24:02.052Z,20.00
2022-08-16T21:26:30.019Z,19.90
2022-08-16T21:28:57.892Z,19.90
2022-08-16T21:31:25.687Z,19.80
2022-08-16T21:33:55.465Z,19.80
2022-08-16T21:36:34.871Z,19.70
2022-08-16T21:39:06.079Z,19.80
2022-08-16T21:41:34.257Z,19.70
2022-08-16T21:44:02.122Z,19.60
2022-08-16T21:46:29.958Z,19.50
2022-08-16T21:48:57.864Z,19.40
2022-08-16T21:51:27.004Z,19.30
2022-08-16T21:53:54.972Z,19.20
2022-08-16T21:56:23.148Z,19.20
2022-08-16T21:58:53.226Z,19.10
2022-08-16T22:01:22.809Z,19.20
2022-08-16T22:04:03.664Z,19.10
2022-08-16T22:06:41.318Z,19.00
2022-08-16T22:09:10.370Z,19.00
2022-08-16T22:11:38.513Z,19.00
2022-08-16T22:14:06.413Z,18.90
2022-08-16T22:16:37.149Z,18.90
2022-08-16T22:19:06.224Z,18.80
2022-08-16T22:21:35.364Z,18.80
2022-08-16T22:24:05.620Z,18.80
2022-08-16T22:26:39.753Z,18.70
2022-08-16T22:29:13.013Z,18.80
2022-08-16T22:31:43.175Z,18.70
2022-08-16T22:34:11.360Z,18.70
2022-08-16T22:36:39.814Z,18.70
2022-08-16T22:39:11.376Z,18.70
2022-08-16T22:41:42.002Z,18.70
2022-08-16T22:44:10.582Z,18.70
2022-08-16T22:46:38.510Z,18.70
2022-08-16T22:49:07.787Z,18.70
2022-08-16T22:51:37.236Z,18.70
2022-08-16T22:54:47.324Z,18.70
2022-08-16T22:56:57.191Z,18.80
2022-08-16T22:59:25.774Z,18.80
2022-08-16T23:01:53.809Z,18.80
2022-08-16T23:04:21.910Z,18.80
2022-08-16T23:06:49.684Z,18.80
2022-08-16T23:09:17.548Z,18.80
2022-08-16T23:11:45.778Z,18.80
2022-08-16T23:14:15.427Z,18.70
2022-08-16T23:16:43.926Z,18.70
2022-08-16T23:19:13.497Z,18.60
2022-08-16T23:21:44.133Z,18.50
2022-08-16T23:24:13.112Z,18.50
2022-08-16T23:26:47.703Z,18.40
2022-08-16T23:29:24.477Z,18.30
2022-08-16T23:31:55.573Z,18.20
2022-08-16T23:34:23.503Z,18.20
2022-08-16T23:36:51.371Z,18.20
2022-08-16T23:39:19.216Z,18.20
2022-08-16T23:41:47.027Z,18.10
2022-08-16T23:44:56.923Z,18.10
2022-08-16T23:47:05.172Z,18.10
2022-08-16T23:49:57.446Z,18.10
2022-08-16T23:52:39.344Z,18.10
2022-08-16T23:55:09.701Z,18.00
2022-08-16T23:57:37.536Z,18.10
